Time;durP1;ratioP1;P1;durP2;ratioP2;P2;SDS_P1;SDS_P2;PMS_P1;PMS_P2;Temp;Humidity;BMP_temperature;BMP_pressure;BME280_temperature;BME280_humidity;BME280_pressure;Samples;Min_cycle;Max_cycle;Signal;HPM_P1;HPM_P2
2021/01/06 00:02:23;;;;;;;;;;;7.50;67.00;;;;;;5119675;27;19930;-78
2021/01/06 00:04:52;;;;;;;;;;;7.60;70.00;;;;;;5120775;27;19972;-79
2021/01/06 00:07:19;;;;;;;;;;;7.90;69.40;;;;;;5117402;27;19924;-79
2021/01/06 00:09:45;;;;;;;;;;;8.30;66.60;;;;;;5116131;27;19924;-79
2021/01/06 00:12:11;;;;;;;;;;;8.00;65.30;;;;;;5115948;27;19928;-79
2021/01/06 00:14:38;;;;;;;;;;;8.40;65.90;;;;;;5115763;27;19923;-78
2021/01/06 00:17:04;;;;;;;;;;;8.50;65.00;;;;;;5120512;27;19930;-78
2021/01/06 00:19:30;;;;;;;;;;;8.40;64.50;;;;;;5113670;28;19946;-78
2021/01/06 00:21:57;;;;;;;;;;;8.60;64.60;;;;;;5095339;28;19923;-78
2021/01/06 00:24:23;;;;;;;;;;;8.50;64.50;;;;;;5113159;28;20391;-78
2021/01/06 00:26:49;;;;;;;;;;;8.70;63.90;;;;;;5095381;28;20398;-78
2021/01/06 00:29:16;;;;;;;;;;;8.40;65.20;;;;;;5113433;28;19924;-78
2021/01/06 00:31:43;;;;;;;;;;;8.00;65.60;;;;;;5113548;28;20325;-79
2021/01/06 00:34:11;;;;;;;;;;;7.80;67.60;;;;;;5095520;28;19930;-78
2021/01/06 00:36:37;;;;;;;;;;;8.00;66.10;;;;;;5113130;28;19924;-79
2021/01/06 00:39:05;;;;;;;;;;;8.00;67.30;;;;;;5095293;28;19928;-78
2021/01/06 00:41:33;;;;;;;;;;;8.00;66.90;;;;;;5095327;28;19931;-79
2021/01/06 00:43:59;;;;;;;;;;;7.30;68.00;;;;;;5113477;28;19924;-79
2021/01/06 00:46:34;;;;;;;;;;;7.10;70.30;;;;;;5095351;28;20375;-79
2021/01/06 00:49:01;;;;;;;;;;;7.20;69.80;;;;;;5113673;28;19924;-79
2021/01/06 00:51:27;;;;;;;;;;;6.70;71.70;;;;;;5113800;28;19931;-79
2021/01/06 00:53:54;;;;;;;;;;;6.60;73.20;;;;;;5095386;28;19935;-80
2021/01/06 00:56:32;;;;;;;;;;;6.40;73.20;;;;;;5116278;28;20001;-80
2021/01/06 00:58:58;;;;;;;;;;;6.50;73.30;;;;;;5097343;28;19924;-79
2021/01/06 01:01:26;;;;;;;;;;;6.70;73.70;;;;;;5097940;28;19923;-80
2021/01/06 01:03:52;;;;;;;;;;;5.90;72.20;;;;;;5098211;28;19923;-79
2021/01/06 01:06:24;;;;;;;;;;;7.00;71.50;;;;;;5095598;28;19930;-79
2021/01/06 01:08:50;;;;;;;;;;;6.90;71.20;;;;;;5114188;28;19924;-83
2021/01/06 01:11:17;;;;;;;;;;;6.90;71.20;;;;;;5097637;28;19947;-80
2021/01/06 01:13:43;;;;;;;;;;;6.20;72.10;;;;;;5116144;28;20430;-79
2021/01/06 01:16:09;;;;;;;;;;;6.70;72.40;;;;;;5106266;27;19986;-80
2021/01/06 01:18:36;;;;;;;;;;;6.60;73.10;;;;;;5119153;27;19923;-80
2021/01/06 01:21:02;;;;;;;;;;;7.10;72.70;;;;;;5134568;27;19934;-80
2021/01/06 01:23:29;;;;;;;;;;;7.70;69.40;;;;;;5116499;27;19932;-80
2021/01/06 01:25:57;;;;;;;;;;;7.70;68.60;;;;;;5134985;27;19923;-79
2021/01/06 01:28:23;;;;;;;;;;;7.90;67.70;;;;;;5115615;27;19923;-80
2021/01/06 01:30:50;;;;;;;;;;;8.20;66.20;;;;;;5133636;27;19992;-79
2021/01/06 01:33:17;;;;;;;;;;;7.90;67.70;;;;;;5132521;27;19931;-79
2021/01/06 01:35:44;;;;;;;;;;;8.00;67.20;;;;;;5114492;27;19927;-80
2021/01/06 01:38:17;;;;;;;;;;;8.40;66.00;;;;;;5114397;27;19923;-79
2021/01/06 01:40:44;;;;;;;;;;;8.10;67.70;;;;;;5132634;27;20295;-79
2021/01/06 01:43:14;;;;;;;;;;;8.30;66.10;;;;;;5114300;27;19923;-79
2021/01/06 01:46:00;;;;;;;;;;;8.20;65.60;;;;;;5132042;27;20472;-79
2021/01/06 01:48:36;;;;;;;;;;;8.30;65.90;;;;;;5113895;27;19930;-78
2021/01/06 01:51:22;;;;;;;;;;;8.60;65.30;;;;;;5113657;27;19924;-79
2021/01/06 01:54:06;;;;;;;;;;;8.80;63.70;;;;;;5096307;27;19930;-79
2021/01/06 01:56:43;;;;;;;;;;;8.70;64.90;;;;;;5113834;27;20427;-78
2021/01/06 01:59:26;;;;;;;;;;;8.70;63.20;;;;;;5132074;27;19949;-79
2021/01/06 02:01:53;;;;;;;;;;;8.10;64.80;;;;;;5113711;27;19923;-79
2021/01/06 02:04:26;;;;;;;;;;;8.10;65.90;;;;;;5132045;27;20030;-79
2021/01/06 02:07:15;;;;;;;;;;;8.20;65.10;;;;;;5113740;27;20375;-78
2021/01/06 02:09:52;;;;;;;;;;;8.10;66.00;;;;;;5111309;28;20387;-78
2021/01/06 02:12:23;;;;;;;;;;;8.00;66.60;;;;;;5093260;28;19928;-79
2021/01/06 02:15:25;;;;;;;;;;;8.40;65.60;;;;;;5093092;28;19923;-78
2021/01/06 02:17:52;;;;;;;;;;;8.80;64.10;;;;;;5026936;28;20127;-79
2021/01/06 02:20:20;;;;;;;;;;;9.00;64.50;;;;;;5076626;28;19931;-79
2021/01/06 02:22:46;;;;;;;;;;;9.30;62.70;;;;;;5092993;28;20387;-78
2021/01/06 02:25:13;;;;;;;;;;;9.50;60.70;;;;;;5110943;28;20308;-78
2021/01/06 02:27:40;;;;;;;;;;;9.30;62.30;;;;;;5111455;28;19924;-78
2021/01/06 02:30:07;;;;;;;;;;;10.00;61.10;;;;;;5092817;28;19924;-78
2021/01/06 02:32:34;;;;;;;;;;;10.00;60.00;;;;;;5093024;28;19924;-79
2021/01/06 02:35:00;;;;;;;;;;;9.90;58.70;;;;;;5110960;28;19927;-79
2021/01/06 02:37:27;;;;;;;;;;;9.50;59.70;;;;;;5092606;28;20486;-78
2021/01/06 02:39:53;;;;;;;;;;;9.50;60.80;;;;;;5111244;28;19924;-79
2021/01/06 02:42:20;;;;;;;;;;;9.10;60.60;;;;;;5092775;28;19930;-79
2021/01/06 02:44:47;;;;;;;;;;;9.10;62.40;;;;;;5110762;28;20014;-79
2021/01/06 02:47:14;;;;;;;;;;;9.00;63.60;;;;;;5092777;28;19962;-78
2021/01/06 02:49:41;;;;;;;;;;;9.00;62.40;;;;;;5092386;28;20093;-78
2021/01/06 02:52:13;;;;;;;;;;;8.80;62.30;;;;;;5092720;28;20402;-79
2021/01/06 02:54:41;;;;;;;;;;;9.10;63.30;;;;;;5092404;28;20296;-78
2021/01/06 02:57:07;;;;;;;;;;;9.30;61.60;;;;;;5092178;28;19924;-78
2021/01/06 02:59:38;;;;;;;;;;;9.70;61.30;;;;;;5092786;28;20002;-79
2021/01/06 03:02:06;;;;;;;;;;;10.30;59.40;;;;;;5110379;28;19934;-80
2021/01/06 03:04:35;;;;;;;;;;;9.50;59.90;;;;;;5092741;28;20269;-78
2021/01/06 03:07:03;;;;;;;;;;;9.30;61.50;;;;;;5110329;28;19923;-78
2021/01/06 03:09:29;;;;;;;;;;;9.40;61.70;;;;;;5110526;28;19962;-79
2021/01/06 03:11:56;;;;;;;;;;;9.20;62.00;;;;;;5092025;28;19928;-79
2021/01/06 03:14:24;;;;;;;;;;;9.10;63.30;;;;;;5092457;28;20008;-79
2021/01/06 03:16:51;;;;;;;;;;;8.70;63.50;;;;;;5102940;28;20189;-78
2021/01/06 03:19:19;;;;;;;;;;;8.80;63.80;;;;;;5112588;28;20348;-79
2021/01/06 03:21:46;;;;;;;;;;;8.70;64.50;;;;;;5112660;28;19935;-78
2021/01/06 03:24:13;;;;;;;;;;;8.80;63.20;;;;;;5112762;28;19930;-78
2021/01/06 03:26:40;;;;;;;;;;;8.70;63.80;;;;;;5130731;28;19930;-79
2021/01/06 03:29:07;;;;;;;;;;;8.90;62.80;;;;;;5131322;28;19931;-79
2021/01/06 03:31:44;;;;;;;;;;;9.20;62.60;;;;;;5112687;28;20391;-78
2021/01/06 03:34:22;;;;;;;;;;;9.40;61.00;;;;;;5112541;28;19963;-78
2021/01/06 03:36:55;;;;;;;;;;;9.50;62.70;;;;;;5112113;28;20261;-79
2021/01/06 03:39:28;;;;;;;;;;;10.00;59.40;;;;;;5112495;28;19923;-79
2021/01/06 03:41:55;;;;;;;;;;;10.50;58.90;;;;;;5130589;28;19927;-78
2021/01/06 03:44:22;;;;;;;;;;;10.70;56.60;;;;;;5112259;28;20318;-78
2021/01/06 03:46:55;;;;;;;;;;;10.70;57.20;;;;;;5112361;28;19923;-78
2021/01/06 03:49:35;;;;;;;;;;;10.30;56.90;;;;;;5112649;28;19924;-79
2021/01/06 03:52:05;;;;;;;;;;;9.90;58.40;;;;;;5130439;28;19923;-78
2021/01/06 03:54:46;;;;;;;;;;;10.10;59.80;;;;;;5112116;28;20022;-78
2021/01/06 03:57:13;;;;;;;;;;;9.90;60.10;;;;;;5112288;28;19941;-78
2021/01/06 03:59:41;;;;;;;;;;;9.80;60.20;;;;;;5112384;28;19923;-79
2021/01/06 04:02:12;;;;;;;;;;;9.80;59.80;;;;;;5112386;28;19924;-78
2021/01/06 04:04:45;;;;;;;;;;;9.50;60.80;;;;;;5131780;28;19934;-79
2021/01/06 04:07:25;;;;;;;;;;;9.40;60.50;;;;;;5132148;28;19936;-79
2021/01/06 04:09:55;;;;;;;;;;;9.20;61.20;;;;;;5093828;28;19924;-81
2021/01/06 04:12:21;;;;;;;;;;;9.40;61.10;;;;;;5091876;28;19931;-81
2021/01/06 04:14:48;;;;;;;;;;;9.60;60.70;;;;;;5110343;28;20364;-80
2021/01/06 04:17:17;;;;;;;;;;;9.10;61.20;;;;;;5124764;28;20112;-81
2021/01/06 04:19:47;;;;;;;;;;;9.60;60.80;;;;;;5112249;28;19924;-79
2021/01/06 04:22:14;;;;;;;;;;;9.50;60.00;;;;;;5112030;28;19924;-80
2021/01/06 04:24:41;;;;;;;;;;;9.40;61.70;;;;;;5112277;28;20259;-80
2021/01/06 04:27:07;;;;;;;;;;;10.00;60.50;;;;;;5112123;28;19931;-80
2021/01/06 04:29:34;;;;;;;;;;;9.90;58.90;;;;;;5115414;27;20392;-80
2021/01/06 04:32:02;;;;;;;;;;;9.90;61.10;;;;;;5115855;27;19923;-80
2021/01/06 04:34:29;;;;;;;;;;;9.60;59.80;;;;;;5115463;27;19924;-80
2021/01/06 04:36:55;;;;;;;;;;;9.40;60.20;;;;;;5133383;27;20409;-79
2021/01/06 04:39:21;;;;;;;;;;;9.60;59.10;;;;;;5133771;27;19930;-77
2021/01/06 04:41:56;;;;;;;;;;;9.30;60.10;;;;;;5133914;27;19931;-79
2021/01/06 04:44:25;;;;;;;;;;;9.10;60.90;;;;;;5115525;27;19923;-78
2021/01/06 04:47:10;;;;;;;;;;;8.80;62.80;;;;;;5115297;27;20302;-78
2021/01/06 04:49:37;;;;;;;;;;;8.60;63.30;;;;;;5115063;27;20292;-78
2021/01/06 04:52:14;;;;;;;;;;;8.00;64.90;;;;;;5115397;27;19930;-80
2021/01/06 04:54:56;;;;;;;;;;;8.00;67.40;;;;;;5133903;27;19923;-77
2021/01/06 04:57:35;;;;;;;;;;;8.60;65.50;;;;;;5114635;27;20311;-78
2021/01/06 05:00:02;;;;;;;;;;;8.80;65.20;;;;;;5115153;27;19931;-78
2021/01/06 05:02:31;;;;;;;;;;;9.20;62.30;;;;;;5133109;27;19930;-80
2021/01/06 05:05:04;;;;;;;;;;;9.70;61.30;;;;;;5114721;27;19930;-80
2021/01/06 05:07:50;;;;;;;;;;;9.80;59.10;;;;;;5130173;27;20454;-80
2021/01/06 05:10:16;;;;;;;;;;;9.40;59.20;;;;;;5094241;28;19924;-77
2021/01/06 05:12:44;;;;;;;;;;;9.00;60.60;;;;;;5112836;28;19924;-78
2021/01/06 05:15:11;;;;;;;;;;;8.50;62.30;;;;;;5128453;27;19931;-78
2021/01/06 05:17:39;;;;;;;;;;;8.40;63.40;;;;;;5130922;27;19923;-80
2021/01/06 05:20:05;;;;;;;;;;;8.00;64.20;;;;;;5133712;27;19927;-80
2021/01/06 05:22:32;;;;;;;;;;;8.00;65.50;;;;;;5134114;27;19930;-80
2021/01/06 05:24:58;;;;;;;;;;;8.10;66.20;;;;;;5115227;27;19923;-80
2021/01/06 05:27:26;;;;;;;;;;;8.40;66.10;;;;;;5114599;27;20205;-78
2021/01/06 05:29:52;;;;;;;;;;;8.50;65.10;;;;;;5114516;27;19923;-78
2021/01/06 05:32:36;;;;;;;;;;;8.50;64.10;;;;;;5115246;27;20014;-80
2021/01/06 05:35:10;;;;;;;;;;;8.10;64.50;;;;;;5132575;27;19923;-80
2021/01/06 05:37:37;;;;;;;;;;;7.70;66.80;;;;;;5114635;27;19976;-80
2021/01/06 05:40:08;;;;;;;;;;;7.80;66.30;;;;;;5113707;27;20406;-80
2021/01/06 05:42:39;;;;;;;;;;;7.70;66.80;;;;;;5132970;27;19927;-80
2021/01/06 05:45:07;;;;;;;;;;;8.20;66.70;;;;;;5114034;27;20383;-80
2021/01/06 05:47:40;;;;;;;;;;;8.50;64.80;;;;;;5114090;27;19934;-80
2021/01/06 05:50:10;;;;;;;;;;;8.50;64.70;;;;;;5132075;27;19930;-79
2021/01/06 05:52:37;;;;;;;;;;;8.80;63.90;;;;;;5113722;27;19923;-76
2021/01/06 05:55:04;;;;;;;;;;;7.60;61.70;;;;;;5114031;27;20113;-80
2021/01/06 05:57:42;;;;;;;;;;;9.20;61.50;;;;;;5113740;27;19927;-77
2021/01/06 06:00:11;;;;;;;;;;;8.80;62.20;;;;;;5114037;27;20372;-79
2021/01/06 06:02:49;;;;;;;;;;;8.50;64.10;;;;;;5113906;27;19924;-79
2021/01/06 06:05:19;;;;;;;;;;;8.50;64.40;;;;;;5114193;27;20524;-79
2021/01/06 06:07:59;;;;;;;;;;;8.40;64.50;;;;;;5108541;28;20402;-78
2021/01/06 06:10:28;;;;;;;;;;;8.60;65.30;;;;;;5111465;28;19924;-78
2021/01/06 06:12:54;;;;;;;;;;;8.90;61.60;;;;;;5111116;28;19966;-79
2021/01/06 06:15:33;;;;;;;;;;;9.20;62.70;;;;;;5111261;28;19928;-79
2021/01/06 06:18:16;;;;;;;;;;;9.00;61.60;;;;;;5092800;28;20269;-79
2021/01/06 06:20:53;;;;;;;;;;;8.80;63.20;;;;;;5092966;28;20503;-79
2021/01/06 06:23:38;;;;;;;;;;;9.00;62.20;;;;;;5111353;28;19923;-80
2021/01/06 06:26:04;;;;;;;;;;;9.00;60.90;;;;;;5110564;28;19923;-79
2021/01/06 06:28:33;;;;;;;;;;;8.70;63.10;;;;;;5111279;28;19931;-79
2021/01/06 06:31:00;;;;;;;;;;;8.80;62.40;;;;;;5093022;28;19924;-79
2021/01/06 06:33:29;;;;;;;;;;;9.00;62.90;;;;;;5092741;28;20414;-79
2021/01/06 06:35:56;;;;;;;;;;;9.00;60.90;;;;;;5092761;28;19924;-77
2021/01/06 06:38:34;;;;;;;;;;;8.50;62.30;;;;;;5110581;28;19924;-79
2021/01/06 06:41:05;;;;;;;;;;;8.30;63.50;;;;;;5093203;28;19931;-78
2021/01/06 06:43:37;;;;;;;;;;;8.40;65.10;;;;;;5110596;28;19923;-78
2021/01/06 06:46:11;;;;;;;;;;;8.80;62.90;;;;;;5110948;28;19924;-79
2021/01/06 06:48:40;;;;;;;;;;;8.30;63.40;;;;;;5093259;28;19924;-78
2021/01/06 06:51:27;;;;;;;;;;;8.10;64.40;;;;;;5109689;28;19931;-78
2021/01/06 06:53:59;;;;;;;;;;;7.90;65.40;;;;;;5110748;28;19924;-78
2021/01/06 06:56:35;;;;;;;;;;;7.50;66.80;;;;;;5092543;28;19924;-79
2021/01/06 06:59:05;;;;;;;;;;;7.60;66.80;;;;;;5093129;28;19924;-79
2021/01/06 07:01:38;;;;;;;;;;;8.00;66.50;;;;;;5111015;28;19924;-79
2021/01/06 07:04:17;;;;;;;;;;;7.90;65.80;;;;;;5110064;28;20351;-78
2021/01/06 07:06:50;;;;;;;;;;;8.00;64.70;;;;;;5110825;28;19924;-78
2021/01/06 07:09:18;;;;;;;;;;;7.60;65.40;;;;;;5092383;28;19946;-78
2021/01/06 07:11:46;;;;;;;;;;;7.40;66.60;;;;;;5092825;28;19935;-78
2021/01/06 07:14:38;;;;;;;;;;;7.00;68.40;;;;;;5110385;28;19924;-79
2021/01/06 07:17:04;;;;;;;;;;;7.20;68.90;;;;;;5118556;28;20019;-79
2021/01/06 07:19:33;;;;;;;;;;;7.30;66.50;;;;;;5112686;28;20493;-79
2021/01/06 07:22:15;;;;;;;;;;;7.80;66.70;;;;;;5131021;28;19923;-78
2021/01/06 07:24:45;;;;;;;;;;;8.30;65.20;;;;;;5112574;28;19924;-79
2021/01/06 07:27:12;;;;;;;;;;;8.60;63.40;;;;;;5131165;28;19930;-79
2021/01/06 07:29:57;;;;;;;;;;;8.20;62.60;;;;;;5112317;28;19923;-78
2021/01/06 07:32:32;;;;;;;;;;;7.90;64.20;;;;;;5130632;28;19942;-79
2021/01/06 07:34:59;;;;;;;;;;;8.00;65.30;;;;;;5112696;28;19923;-79
2021/01/06 07:37:34;;;;;;;;;;;8.40;64.40;;;;;;5112585;28;20532;-78
2021/01/06 07:40:04;;;;;;;;;;;8.80;63.00;;;;;;5112637;28;19946;-78
2021/01/06 07:42:36;;;;;;;;;;;8.40;60.90;;;;;;5112354;28;19923;-77
2021/01/06 07:45:29;;;;;;;;;;;7.70;63.70;;;;;;5112613;28;19930;-78
2021/01/06 07:47:59;;;;;;;;;;;7.40;67.40;;;;;;5125949;28;19931;-78
2021/01/06 07:50:25;;;;;;;;;;;7.30;65.90;;;;;;5130449;28;19934;-78
2021/01/06 07:52:54;;;;;;;;;;;7.30;65.70;;;;;;5130767;28;19923;-78
2021/01/06 07:55:27;;;;;;;;;;;7.30;66.50;;;;;;5112540;28;19923;-79
2021/01/06 07:58:01;;;;;;;;;;;7.60;68.50;;;;;;5112487;28;19934;-79
2021/01/06 08:00:38;;;;;;;;;;;7.90;65.90;;;;;;5130783;28;19924;-80
2021/01/06 08:03:12;;;;;;;;;;;8.60;62.50;;;;;;5133758;27;19928;-79
2021/01/06 08:05:39;;;;;;;;;;;8.10;62.30;;;;;;5116696;27;19930;-79
2021/01/06 08:08:05;;;;;;;;;;;8.10;65.80;;;;;;5109379;28;19924;-79
2021/01/06 08:10:32;;;;;;;;;;;8.30;64.10;;;;;;5096347;28;19923;-79
2021/01/06 08:13:18;;;;;;;;;;;8.60;63.80;;;;;;5095882;28;19924;-78
2021/01/06 08:15:45;;;;;;;;;;;8.50;63.70;;;;;;5097352;27;19930;-77
2021/01/06 08:18:22;;;;;;;;;;;8.70;62.90;;;;;;5115796;27;20384;-79
2021/01/06 08:20:54;;;;;;;;;;;8.30;63.50;;;;;;5134354;27;19927;-78
2021/01/06 08:23:28;;;;;;;;;;;8.60;64.50;;;;;;5115726;27;19924;-78
2021/01/06 08:25:54;;;;;;;;;;;8.60;62.00;;;;;;5115782;27;19927;-77
2021/01/06 08:28:25;;;;;;;;;;;8.10;64.50;;;;;;5115743;27;19923;-78
2021/01/06 08:30:51;;;;;;;;;;;8.30;65.70;;;;;;5115484;27;19931;-79
2021/01/06 08:33:19;;;;;;;;;;;8.10;63.30;;;;;;5115946;27;19931;-79
2021/01/06 08:35:49;;;;;;;;;;;7.80;65.00;;;;;;5134111;27;19928;-79
2021/01/06 08:38:25;;;;;;;;;;;7.80;65.80;;;;;;5115716;27;19941;-80
2021/01/06 08:40:51;;;;;;;;;;;7.70;66.60;;;;;;5134585;27;20178;-78
2021/01/06 08:43:17;;;;;;;;;;;7.80;66.80;;;;;;5115331;27;19923;-78
2021/01/06 08:45:55;;;;;;;;;;;7.90;65.10;;;;;;5115592;27;19924;-79
2021/01/06 08:48:26;;;;;;;;;;;7.90;65.80;;;;;;5115800;27;19951;-80
2021/01/06 08:50:56;;;;;;;;;;;8.30;65.60;;;;;;5115594;27;19934;-78
2021/01/06 08:53:30;;;;;;;;;;;8.30;64.90;;;;;;5116276;27;20368;-78
2021/01/06 08:55:58;;;;;;;;;;;8.30;65.00;;;;;;5133868;27;19924;-78
2021/01/06 08:58:38;;;;;;;;;;;8.20;66.00;;;;;;5133555;27;19954;-77
2021/01/06 09:01:04;;;;;;;;;;;8.50;64.40;;;;;;5133540;27;19924;-79
2021/01/06 09:03:31;;;;;;;;;;;9.00;63.00;;;;;;5114861;27;19929;-80
2021/01/06 09:06:03;;;;;;;;;;;9.30;62.00;;;;;;5133363;27;19951;-79
2021/01/06 09:08:35;;;;;;;;;;;9.20;62.00;;;;;;5121707;27;19931;-79
2021/01/06 09:11:12;;;;;;;;;;;9.60;62.10;;;;;;5094477;28;19931;-79
2021/01/06 09:13:38;;;;;;;;;;;10.00;59.70;;;;;;5127273;27;19924;-79
2021/01/06 09:16:13;;;;;;;;;;;10.60;59.00;;;;;;5116806;27;20341;-79
2021/01/06 09:18:58;;;;;;;;;;;10.70;57.00;;;;;;5114577;27;20291;-79
2021/01/06 09:21:29;;;;;;;;;;;11.00;55.00;;;;;;5114469;27;19927;-78
2021/01/06 09:23:58;;;;;;;;;;;10.70;55.60;;;;;;5132628;27;20335;-79
2021/01/06 09:26:26;;;;;;;;;;;10.60;57.60;;;;;;5132858;27;19923;-78
2021/01/06 09:28:57;;;;;;;;;;;10.70;56.00;;;;;;5114725;27;19924;-78
2021/01/06 09:31:24;;;;;;;;;;;10.80;56.30;;;;;;5114424;27;19923;-78
2021/01/06 09:33:51;;;;;;;;;;;11.00;55.60;;;;;;5114334;27;19923;-77
2021/01/06 09:36:17;;;;;;;;;;;10.70;55.40;;;;;;5132683;27;19924;-78
2021/01/06 09:38:45;;;;;;;;;;;10.60;57.10;;;;;;5114129;27;19924;-77
2021/01/06 09:41:18;;;;;;;;;;;10.10;58.10;;;;;;5114274;27;19931;-79
2021/01/06 09:43:49;;;;;;;;;;;10.00;57.40;;;;;;5132563;27;19984;-78
2021/01/06 09:46:18;;;;;;;;;;;9.70;59.80;;;;;;5132287;27;19931;-78
2021/01/06 09:48:47;;;;;;;;;;;9.50;59.00;;;;;;5132556;27;19935;-77
2021/01/06 09:51:16;;;;;;;;;;;9.00;61.10;;;;;;5113566;27;20410;-77
2021/01/06 09:53:43;;;;;;;;;;;9.50;61.40;;;;;;5114547;27;19930;-78
2021/01/06 09:56:13;;;;;;;;;;;9.00;60.70;;;;;;5132083;27;19924;-78
2021/01/06 09:58:40;;;;;;;;;;;8.80;63.30;;;;;;5132091;27;19924;-77
2021/01/06 10:01:16;;;;;;;;;;;9.20;63.40;;;;;;5132467;27;19924;-78
2021/01/06 10:03:43;;;;;;;;;;;9.00;61.60;;;;;;5113874;27;19930;-79
2021/01/06 10:06:09;;;;;;;;;;;9.60;60.40;;;;;;5113703;27;20274;-78
2021/01/06 10:08:40;;;;;;;;;;;9.70;60.80;;;;;;5119957;27;20375;-80
2021/01/06 10:11:21;;;;;;;;;;;10.20;59.60;;;;;;5111579;28;19923;-80
2021/01/06 10:14:08;;;;;;;;;;;10.80;57.80;;;;;;5111058;28;19931;-80
2021/01/06 10:16:38;;;;;;;;;;;11.10;54.30;;;;;;5068402;27;20409;-80
2021/01/06 10:19:04;;;;;;;;;;;10.60;55.40;;;;;;5113306;27;19930;-81
2021/01/06 10:21:33;;;;;;;;;;;10.10;57.80;;;;;;5113865;27;19938;-80
2021/01/06 10:24:10;;;;;;;;;;;10.40;58.00;;;;;;5131583;27;19931;-79
2021/01/06 10:26:42;;;;;;;;;;;10.00;57.50;;;;;;5113309;27;20314;-79
2021/01/06 10:29:11;;;;;;;;;;;9.80;59.00;;;;;;5113434;27;20402;-79
2021/01/06 10:31:57;;;;;;;;;;;10.00;58.30;;;;;;5113474;27;20299;-80
2021/01/06 10:34:50;;;;;;;;;;;9.60;59.00;;;;;;5131270;27;20375;-78
2021/01/06 10:37:20;;;;;;;;;;;9.40;61.70;;;;;;5108216;27;19930;-78
2021/01/06 10:39:49;;;;;;;;;;;9.40;60.30;;;;;;5113364;27;19924;-78
2021/01/06 10:42:21;;;;;;;;;;;9.30;61.60;;;;;;5131574;27;19927;-78
2021/01/06 10:44:49;;;;;;;;;;;9.10;61.40;;;;;;5113448;27;19930;-78
2021/01/06 10:47:31;;;;;;;;;;;9.00;62.90;;;;;;5113081;27;20340;-77
2021/01/06 10:49:58;;;;;;;;;;;8.70;63.20;;;;;;5132185;27;19931;-79
2021/01/06 10:52:25;;;;;;;;;;;9.10;64.30;;;;;;5113302;27;19931;-78
2021/01/06 10:54:56;;;;;;;;;;;9.30;60.10;;;;;;5113163;27;19931;-78
2021/01/06 10:57:29;;;;;;;;;;;9.30;60.70;;;;;;5112398;27;20565;-78
2021/01/06 11:00:11;;;;;;;;;;;9.40;61.10;;;;;;5130773;27;19924;-77
2021/01/06 11:02:56;;;;;;;;;;;9.90;59.80;;;;;;5112960;27;19935;-79
2021/01/06 11:05:36;;;;;;;;;;;10.20;58.90;;;;;;5113120;27;19924;-80
2021/01/06 11:08:21;;;;;;;;;;;10.20;59.20;;;;;;5105301;28;20493;-79
2021/01/06 11:10:49;;;;;;;;;;;10.50;57.10;;;;;;5092191;28;19924;-79
2021/01/06 11:13:27;;;;;;;;;;;10.40;58.60;;;;;;5110054;28;20431;-78
2021/01/06 11:15:59;;;;;;;;;;;10.60;56.60;;;;;;5095348;28;20410;-78
2021/01/06 11:18:26;;;;;;;;;;;10.00;58.60;;;;;;5130911;28;19927;-79
2021/01/06 11:21:06;;;;;;;;;;;10.20;58.50;;;;;;5130899;28;19927;-80
2021/01/06 11:23:37;;;;;;;;;;;10.20;57.80;;;;;;5113269;28;20387;-77
2021/01/06 11:26:23;;;;;;;;;;;10.30;58.60;;;;;;5122467;28;20158;-79
2021/01/06 11:29:05;;;;;;;;;;;10.50;58.40;;;;;;5094612;28;19924;-76
2021/01/06 11:31:34;;;;;;;;;;;10.80;56.00;;;;;;5112698;28;19942;-74
2021/01/06 11:34:09;;;;;;;;;;;10.90;56.70;;;;;;5120187;28;19928;-78
2021/01/06 11:36:45;;;;;;;;;;;10.20;58.00;;;;;;5117626;27;19950;-77
2021/01/06 11:39:31;;;;;;;;;;;10.20;60.50;;;;;;5122945;27;20010;-74
2021/01/06 11:41:57;;;;;;;;;;;10.20;58.70;;;;;;5104055;27;19924;-76
2021/01/06 11:44:30;;;;;;;;;;;9.80;59.70;;;;;;5106370;27;19935;-75
2021/01/06 11:47:05;;;;;;;;;;;10.30;60.50;;;;;;5102771;27;19930;-75
2021/01/06 11:49:34;;;;;;;;;;;10.80;58.70;;;;;;5121869;27;19923;-76
2021/01/06 11:52:19;;;;;;;;;;;10.90;56.70;;;;;;5123873;27;19924;-80
2021/01/06 11:55:09;;;;;;;;;;;10.60;58.60;;;;;;5105334;27;19923;-79
2021/01/06 11:57:54;;;;;;;;;;;9.90;58.90;;;;;;5109283;27;19939;-79
2021/01/06 12:00:24;;;;;;;;;;;9.80;60.60;;;;;;5120850;27;20407;-76
2021/01/06 12:02:59;;;;;;;;;;;9.40;61.90;;;;;;5121668;27;19945;-77
2021/01/06 12:05:31;;;;;;;;;;;9.70;62.00;;;;;;5121388;27;19924;-72
2021/01/06 12:08:16;;;;;;;;;;;9.80;60.90;;;;;;5120479;27;19923;-74
2021/01/06 12:10:53;;;;;;;;;;;9.50;62.40;;;;;;5106324;27;19936;-73
2021/01/06 12:13:46;;;;;;;;;;;9.80;61.20;;;;;;5121032;27;20463;-74
2021/01/06 12:16:18;;;;;;;;;;;9.80;62.10;;;;;;5121993;27;19927;-76
2021/01/06 12:18:47;;;;;;;;;;;9.90;61.60;;;;;;5121517;27;19927;-75
2021/01/06 12:21:32;;;;;;;;;;;10.20;59.60;;;;;;5121115;27;19927;-77
2021/01/06 12:24:17;;;;;;;;;;;10.30;59.20;;;;;;5120887;27;20001;-76
2021/01/06 12:26:47;;;;;;;;;;;10.30;58.20;;;;;;5113224;28;19924;-76
2021/01/06 12:29:16;;;;;;;;;;;9.90;59.40;;;;;;5113463;28;19924;-76
2021/01/06 12:31:51;;;;;;;;;;;10.40;60.80;;;;;;5113643;28;19931;-76
2021/01/06 12:34:29;;;;;;;;;;;10.60;57.90;;;;;;5117807;27;19928;-77
2021/01/06 12:37:02;;;;;;;;;;;10.20;59.90;;;;;;5122344;27;19927;-75
2021/01/06 12:39:37;;;;;;;;;;;10.30;59.30;;;;;;5120930;27;19947;-76
2021/01/06 12:42:06;;;;;;;;;;;10.70;60.00;;;;;;5119654;27;19934;-77
2021/01/06 12:44:34;;;;;;;;;;;10.70;59.20;;;;;;5122322;27;19938;-77
2021/01/06 12:47:03;;;;;;;;;;;10.90;58.40;;;;;;5120478;27;20311;-77
2021/01/06 12:49:39;;;;;;;;;;;10.60;57.60;;;;;;5118849;27;19924;-77
2021/01/06 12:52:14;;;;;;;;;;;10.30;59.00;;;;;;5120670;27;20276;-76
2021/01/06 12:54:43;;;;;;;;;;;10.80;59.20;;;;;;5116978;27;19928;-75
2021/01/06 12:57:21;;;;;;;;;;;11.10;56.40;;;;;;5120345;27;19958;-75
2021/01/06 12:59:47;;;;;;;;;;;11.50;56.70;;;;;;5118923;27;19923;-74
2021/01/06 13:02:34;;;;;;;;;;;12.00;56.20;;;;;;5121751;27;19927;-74
2021/01/06 13:05:16;;;;;;;;;;;12.80;53.50;;;;;;5116808;27;19927;-73
2021/01/06 13:07:47;;;;;;;;;;;13.40;51.20;;;;;;5121106;27;20387;-76
2021/01/06 13:10:13;;;;;;;;;;;13.70;49.30;;;;;;5121568;27;19942;-72
2021/01/06 13:13:02;;;;;;;;;;;13.80;49.50;;;;;;5120240;27;20188;-73
2021/01/06 13:15:40;;;;;;;;;;;14.20;48.30;;;;;;5121018;27;19931;-73
2021/01/06 13:18:11;;;;;;;;;;;14.20;47.50;;;;;;5120126;27;19931;-73
2021/01/06 13:20:53;;;;;;;;;;;14.30;47.80;;;;;;5121154;27;20383;-75
2021/01/06 13:23:38;;;;;;;;;;;13.60;46.90;;;;;;5119745;27;19973;-73
2021/01/06 13:26:16;;;;;;;;;;;13.20;50.50;;;;;;5120340;27;19935;-73
2021/01/06 13:28:58;;;;;;;;;;;13.30;49.50;;;;;;5119231;27;19924;-72
2021/01/06 13:31:28;;;;;;;;;;;13.40;50.00;;;;;;5119345;27;19924;-71
2021/01/06 13:34:13;;;;;;;;;;;13.20;50.30;;;;;;5119586;27;19950;-74
2021/01/06 13:36:59;;;;;;;;;;;13.40;50.20;;;;;;5118238;27;21650;-75
2021/01/06 13:39:46;;;;;;;;;;;12.60;50.20;;;;;;5118214;27;19927;-75
2021/01/06 13:42:32;;;;;;;;;;;12.20;52.10;;;;;;5120202;27;19927;-76
2021/01/06 13:45:22;;;;;;;;;;;11.40;54.80;;;;;;5120536;27;19935;-76
2021/01/06 13:48:10;;;;;;;;;;;11.60;55.40;;;;;;5116789;27;19923;-75
2021/01/06 13:50:45;;;;;;;;;;;10.90;55.90;;;;;;5119475;27;20032;-74
2021/01/06 13:53:15;;;;;;;;;;;10.40;57.80;;;;;;5111582;28;19924;-74
2021/01/06 13:55:58;;;;;;;;;;;10.20;59.30;;;;;;5111414;28;20372;-75
2021/01/06 13:58:37;;;;;;;;;;;10.20;60.80;;;;;;5111678;28;19924;-74
2021/01/06 14:01:14;;;;;;;;;;;10.60;58.50;;;;;;5092921;28;19931;-74
2021/01/06 14:03:46;;;;;;;;;;;10.70;57.70;;;;;;5115015;27;20108;-76
2021/01/06 14:06:23;;;;;;;;;;;10.70;58.50;;;;;;5121230;27;19927;-75
2021/01/06 14:09:13;;;;;;;;;;;11.00;58.20;;;;;;5120109;27;19923;-76
2021/01/06 14:11:51;;;;;;;;;;;11.30;56.90;;;;;;5120470;27;19931;-78
2021/01/06 14:14:33;;;;;;;;;;;11.50;56.80;;;;;;5120684;27;19930;-76
2021/01/06 14:17:14;;;;;;;;;;;11.60;56.80;;;;;;5116425;27;19930;-76
2021/01/06 14:20:00;;;;;;;;;;;11.30;55.20;;;;;;5117877;27;19931;-76
2021/01/06 14:22:26;;;;;;;;;;;10.90;58.60;;;;;;5117446;27;19924;-75
2021/01/06 14:24:55;;;;;;;;;;;11.10;57.50;;;;;;5114349;27;20035;-76
2021/01/06 14:27:25;;;;;;;;;;;11.50;57.80;;;;;;5118272;27;19935;-78
2021/01/06 14:30:10;;;;;;;;;;;11.90;55.90;;;;;;5120909;27;19923;-75
2021/01/06 14:32:45;;;;;;;;;;;12.30;55.20;;;;;;5120275;27;19923;-74
2021/01/06 14:35:14;;;;;;;;;;;12.70;53.50;;;;;;5117455;27;20300;-74
2021/01/06 14:38:07;;;;;;;;;;;13.10;52.60;;;;;;5118399;27;19977;-75
2021/01/06 14:40:35;;;;;;;;;;;13.30;51.50;;;;;;5116371;27;19924;-77
2021/01/06 14:43:07;;;;;;;;;;;13.30;51.00;;;;;;5123393;27;19923;-78
2021/01/06 14:45:34;;;;;;;;;;;13.00;50.80;;;;;;5109239;28;19947;-78
2021/01/06 14:48:13;;;;;;;;;;;12.90;51.80;;;;;;5090910;28;19931;-77
2021/01/06 14:50:57;;;;;;;;;;;12.90;52.60;;;;;;5108205;28;20300;-77
2021/01/06 14:53:26;;;;;;;;;;;13.30;51.70;;;;;;5091389;28;19934;-78
2021/01/06 14:56:10;;;;;;;;;;;13.30;51.30;;;;;;5109146;28;20300;-76
2021/01/06 14:58:55;;;;;;;;;;;13.50;50.80;;;;;;5109170;28;19951;-77